Aérodrome :
LOGIN :

S'inscrire | Disclaimer

   EN    FR    IT 

 










Légende :    VFR   VFR Marginal   IFR   IFR Intensif   IFR Très Intensif
Visi : 
Plafond : 
>= 8 km
>= 3000ft
5 à 8 km
1000 à 3000 ft
1500m à 5 km
500 à 1000 ft
800 à 1500m
200 à 500 ft
< 800m
< 200 ft
Symboles :   Orages  Brouillard  Fortes neiges  Fortes précipitations  Vent > 20 kt
SIGMETs :   Divers  Orages  Givrage  Turbulence  Onde Orograph.  Cendres Volcan.






- Altitude de l'aérodrome : 14 ft
- Code IATA : BRE


EDDW - Bremen Neuenland

DERNIER METAR :
  • 210420Z 27003KT CAVOK 02/00 Q1015 NOSIG

METARs EXPIRÉS :
  • 210350Z 25003KT CAVOK 02/00 Q1015 NOSIG
  • 210320Z 23003KT CAVOK 02/01 Q1015
  • 210250Z 23002KT CAVOK 03/01 Q1015
  • 210220Z 24002KT CAVOK 03/01 Q1015
  • 210150Z 22002KT CAVOK 03/01 Q1015

TAF TAF EDDW
Valide du 21 à 00h jusqu'au 22 à 00h UTC


202300Z 2100/2124 32004KT 9999 FEW035
BECMG 2107/2109 32009KT
PROB30
TEMPO 2109/2111 BKN014
BECMG 2111/2113 33015G25KT
BECMG 2117/2119 30008KT



MET'MAP, la Météo Aéronautique d'un coup d'oeil ! - Copyright ORBIFLY Décembre 2007 - Disclaimer

ORBIFLY MET'MAP TEAM :

Programmation & Développement : Alexandra Zaïnal
Sur une idée originale de : Baudouin d'Aumeries
Assistance à la programmation : Marc-Olivier Méhu
Soutien technique & logistique : Manuel Goepfert

Contact : metmap@orbifly.com




SOURCES & CREDITS :

   NOAA